sensor_id;sensor_type;location;lat;lon;timestamp;P1;durP1;ratioP1;P2;durP2;ratioP2
3417;SDS011;1722;51.316;12.370;2022-10-15T00:01:05;11.43;;;8.73;;
3417;SDS011;1722;51.316;12.370;2022-10-15T00:03:34;15.80;;;9.60;;
3417;SDS011;1722;51.316;12.370;2022-10-15T00:06:03;15.57;;;9.23;;
3417;SDS011;1722;51.316;12.370;2022-10-15T00:08:33;15.30;;;8.87;;
3417;SDS011;1722;51.316;12.370;2022-10-15T00:11:01;13.90;;;9.30;;
3417;SDS011;1722;51.316;12.370;2022-10-15T00:13:30;15.40;;;8.47;;
3417;SDS011;1722;51.316;12.370;2022-10-15T00:15:58;11.33;;;7.60;;
3417;SDS011;1722;51.316;12.370;2022-10-15T00:18:26;15.00;;;8.47;;
3417;SDS011;1722;51.316;12.370;2022-10-15T00:20:54;10.23;;;8.40;;
3417;SDS011;1722;51.316;12.370;2022-10-15T00:23:23;15.50;;;9.73;;
3417;SDS011;1722;51.316;12.370;2022-10-15T00:25:59;14.80;;;8.27;;
3417;SDS011;1722;51.316;12.370;2022-10-15T00:28:27;10.77;;;6.80;;
3417;SDS011;1722;51.316;12.370;2022-10-15T00:30:58;14.10;;;8.37;;
3417;SDS011;1722;51.316;12.370;2022-10-15T00:33:26;10.10;;;7.40;;
3417;SDS011;1722;51.316;12.370;2022-10-15T00:35:57;11.60;;;8.13;;
3417;SDS011;1722;51.316;12.370;2022-10-15T00:38:27;12.17;;;8.17;;
3417;SDS011;1722;51.316;12.370;2022-10-15T00:40:54;10.07;;;7.50;;
3417;SDS011;1722;51.316;12.370;2022-10-15T00:43:35;10.20;;;7.00;;
3417;SDS011;1722;51.316;12.370;2022-10-15T00:46:11;9.93;;;7.73;;
3417;SDS011;1722;51.316;12.370;2022-10-15T00:48:44;10.53;;;6.77;;
3417;SDS011;1722;51.316;12.370;2022-10-15T00:51:14;10.03;;;7.30;;
3417;SDS011;1722;51.316;12.370;2022-10-15T00:53:45;19.43;;;8.17;;
3417;SDS011;1722;51.316;12.370;2022-10-15T00:56:14;9.40;;;6.33;;
3417;SDS011;1722;51.316;12.370;2022-10-15T00:58:43;12.00;;;6.60;;
3417;SDS011;1722;51.316;12.370;2022-10-15T01:01:11;8.87;;;6.23;;
3417;SDS011;1722;51.316;12.370;2022-10-15T01:03:38;8.10;;;5.50;;
3417;SDS011;1722;51.316;12.370;2022-10-15T01:06:07;8.57;;;5.07;;
3417;SDS011;1722;51.316;12.370;2022-10-15T01:08:34;8.73;;;6.43;;
3417;SDS011;1722;51.316;12.370;2022-10-15T01:11:06;7.10;;;5.33;;
3417;SDS011;1722;51.316;12.370;2022-10-15T01:13:43;9.50;;;5.40;;
3417;SDS011;1722;51.316;12.370;2022-10-15T01:16:22;9.27;;;4.93;;
3417;SDS011;1722;51.316;12.370;2022-10-15T01:19:00;7.33;;;5.60;;
3417;SDS011;1722;51.316;12.370;2022-10-15T01:21:32;8.50;;;5.97;;
3417;SDS011;1722;51.316;12.370;2022-10-15T01:24:16;8.30;;;6.00;;
3417;SDS011;1722;51.316;12.370;2022-10-15T01:32:52;12.90;;;7.53;;
3417;SDS011;1722;51.316;12.370;2022-10-15T01:35:33;10.23;;;7.40;;
3417;SDS011;1722;51.316;12.370;2022-10-15T01:38:14;15.47;;;9.80;;
3417;SDS011;1722;51.316;12.370;2022-10-15T01:40:50;19.73;;;10.70;;
3417;SDS011;1722;51.316;12.370;2022-10-15T01:43:21;15.10;;;9.83;;
3417;SDS011;1722;51.316;12.370;2022-10-15T01:45:56;13.87;;;8.40;;
3417;SDS011;1722;51.316;12.370;2022-10-15T01:48:28;14.00;;;9.03;;
3417;SDS011;1722;51.316;12.370;2022-10-15T01:50:59;10.73;;;8.00;;
3417;SDS011;1722;51.316;12.370;2022-10-15T01:53:29;12.67;;;8.10;;
3417;SDS011;1722;51.316;12.370;2022-10-15T01:55:59;10.20;;;7.10;;
3417;SDS011;1722;51.316;12.370;2022-10-15T01:58:30;8.00;;;6.87;;
3417;SDS011;1722;51.316;12.370;2022-10-15T02:01:00;11.10;;;6.77;;
3417;SDS011;1722;51.316;12.370;2022-10-15T02:03:27;7.47;;;6.30;;
3417;SDS011;1722;51.316;12.370;2022-10-15T02:05:56;9.13;;;7.17;;
3417;SDS011;1722;51.316;12.370;2022-10-15T02:08:30;9.00;;;6.80;;
3417;SDS011;1722;51.316;12.370;2022-10-15T02:11:07;9.83;;;7.00;;
3417;SDS011;1722;51.316;12.370;2022-10-15T02:13:40;8.17;;;6.20;;
3417;SDS011;1722;51.316;12.370;2022-10-15T02:16:19;8.00;;;6.13;;
3417;SDS011;1722;51.316;12.370;2022-10-15T02:18:51;9.63;;;6.60;;
3417;SDS011;1722;51.316;12.370;2022-10-15T02:21:25;8.20;;;7.30;;
3417;SDS011;1722;51.316;12.370;2022-10-15T02:24:01;9.17;;;6.73;;
3417;SDS011;1722;51.316;12.370;2022-10-15T02:26:34;10.00;;;6.63;;
3417;SDS011;1722;51.316;12.370;2022-10-15T02:29:04;7.77;;;6.30;;
3417;SDS011;1722;51.316;12.370;2022-10-15T02:31:36;9.47;;;6.70;;
3417;SDS011;1722;51.316;12.370;2022-10-15T02:34:08;9.60;;;6.27;;
3417;SDS011;1722;51.316;12.370;2022-10-15T02:36:38;12.33;;;5.07;;
3417;SDS011;1722;51.316;12.370;2022-10-15T02:39:07;9.03;;;6.00;;
3417;SDS011;1722;51.316;12.370;2022-10-15T02:41:38;7.30;;;5.80;;
3417;SDS011;1722;51.316;12.370;2022-10-15T02:44:06;6.00;;;5.23;;
3417;SDS011;1722;51.316;12.370;2022-10-15T02:46:33;7.63;;;5.50;;
3417;SDS011;1722;51.316;12.370;2022-10-15T02:49:02;20.20;;;5.37;;
3417;SDS011;1722;51.316;12.370;2022-10-15T02:51:30;10.50;;;5.67;;
3417;SDS011;1722;51.316;12.370;2022-10-15T02:53:58;6.73;;;4.37;;
3417;SDS011;1722;51.316;12.370;2022-10-15T02:56:26;5.23;;;4.70;;
3417;SDS011;1722;51.316;12.370;2022-10-15T02:58:53;8.30;;;5.60;;
3417;SDS011;1722;51.316;12.370;2022-10-15T03:01:20;7.20;;;5.37;;
3417;SDS011;1722;51.316;12.370;2022-10-15T03:03:49;7.70;;;5.20;;
3417;SDS011;1722;51.316;12.370;2022-10-15T03:06:17;8.17;;;4.33;;
3417;SDS011;1722;51.316;12.370;2022-10-15T03:08:44;8.53;;;5.00;;
3417;SDS011;1722;51.316;12.370;2022-10-15T03:11:12;11.00;;;4.30;;
3417;SDS011;1722;51.316;12.370;2022-10-15T03:13:39;4.83;;;3.97;;
3417;SDS011;1722;51.316;12.370;2022-10-15T03:16:07;5.07;;;3.97;;
3417;SDS011;1722;51.316;12.370;2022-10-15T03:18:36;6.60;;;4.57;;
3417;SDS011;1722;51.316;12.370;2022-10-15T03:21:05;6.33;;;4.47;;
3417;SDS011;1722;51.316;12.370;2022-10-15T03:23:33;4.10;;;3.70;;
3417;SDS011;1722;51.316;12.370;2022-10-15T03:26:00;9.77;;;3.87;;
3417;SDS011;1722;51.316;12.370;2022-10-15T03:28:28;6.53;;;3.73;;
3417;SDS011;1722;51.316;12.370;2022-10-15T03:30:55;8.60;;;3.80;;
3417;SDS011;1722;51.316;12.370;2022-10-15T03:33:22;6.80;;;3.80;;
3417;SDS011;1722;51.316;12.370;2022-10-15T03:35:50;4.27;;;3.40;;
3417;SDS011;1722;51.316;12.370;2022-10-15T03:38:20;7.33;;;4.07;;
3417;SDS011;1722;51.316;12.370;2022-10-15T03:40:47;5.73;;;4.03;;
3417;SDS011;1722;51.316;12.370;2022-10-15T03:43:14;3.83;;;3.43;;
3417;SDS011;1722;51.316;12.370;2022-10-15T03:45:42;4.63;;;3.40;;
3417;SDS011;1722;51.316;12.370;2022-10-15T03:48:09;4.60;;;3.47;;
3417;SDS011;1722;51.316;12.370;2022-10-15T03:50:36;4.93;;;3.77;;
3417;SDS011;1722;51.316;12.370;2022-10-15T03:53:04;4.80;;;3.47;;
3417;SDS011;1722;51.316;12.370;2022-10-15T03:55:33;7.60;;;3.77;;
3417;SDS011;1722;51.316;12.370;2022-10-15T03:58:00;4.87;;;3.70;;
3417;SDS011;1722;51.316;12.370;2022-10-15T04:00:28;5.00;;;3.53;;
3417;SDS011;1722;51.316;12.370;2022-10-15T04:02:55;8.37;;;3.50;;
3417;SDS011;1722;51.316;12.370;2022-10-15T04:05:23;10.90;;;3.00;;
3417;SDS011;1722;51.316;12.370;2022-10-15T04:07:50;4.13;;;3.37;;
3417;SDS011;1722;51.316;12.370;2022-10-15T04:10:18;4.30;;;3.30;;
3417;SDS011;1722;51.316;12.370;2022-10-15T04:12:47;5.37;;;3.43;;
3417;SDS011;1722;51.316;12.370;2022-10-15T04:15:14;3.47;;;3.17;;
3417;SDS011;1722;51.316;12.370;2022-10-15T04:17:42;3.33;;;2.97;;
3417;SDS011;1722;51.316;12.370;2022-10-15T04:20:10;4.40;;;3.00;;
3417;SDS011;1722;51.316;12.370;2022-10-15T04:22:37;5.40;;;2.90;;
3417;SDS011;1722;51.316;12.370;2022-10-15T04:25:05;4.17;;;3.50;;
3417;SDS011;1722;51.316;12.370;2022-10-15T04:27:33;3.83;;;3.13;;
3417;SDS011;1722;51.316;12.370;2022-10-15T04:30:03;4.60;;;3.27;;
3417;SDS011;1722;51.316;12.370;2022-10-15T04:32:31;3.40;;;3.10;;
3417;SDS011;1722;51.316;12.370;2022-10-15T04:34:59;4.70;;;3.20;;
3417;SDS011;1722;51.316;12.370;2022-10-15T04:37:26;6.53;;;3.23;;
3417;SDS011;1722;51.316;12.370;2022-10-15T04:39:53;3.40;;;3.10;;
3417;SDS011;1722;51.316;12.370;2022-10-15T04:42:21;6.30;;;2.93;;
3417;SDS011;1722;51.316;12.370;2022-10-15T04:44:48;4.23;;;3.37;;
3417;SDS011;1722;51.316;12.370;2022-10-15T04:47:17;4.43;;;2.97;;
3417;SDS011;1722;51.316;12.370;2022-10-15T04:49:44;6.50;;;4.03;;
3417;SDS011;1722;51.316;12.370;2022-10-15T04:52:12;3.93;;;3.50;;
3417;SDS011;1722;51.316;12.370;2022-10-15T04:54:39;4.57;;;3.60;;
3417;SDS011;1722;51.316;12.370;2022-10-15T04:57:07;5.40;;;3.57;;
3417;SDS011;1722;51.316;12.370;2022-10-15T04:59:34;4.17;;;2.93;;
3417;SDS011;1722;51.316;12.370;2022-10-15T05:02:02;5.40;;;3.23;;
3417;SDS011;1722;51.316;12.370;2022-10-15T05:04:31;4.10;;;3.70;;
3417;SDS011;1722;51.316;12.370;2022-10-15T05:06:58;3.20;;;2.90;;
3417;SDS011;1722;51.316;12.370;2022-10-15T05:09:25;6.50;;;3.13;;
3417;SDS011;1722;51.316;12.370;2022-10-15T05:11:53;4.67;;;3.10;;
3417;SDS011;1722;51.316;12.370;2022-10-15T05:14:20;7.00;;;2.97;;
3417;SDS011;1722;51.316;12.370;2022-10-15T05:16:48;3.37;;;2.80;;
3417;SDS011;1722;51.316;12.370;2022-10-15T05:19:15;4.37;;;3.40;;
3417;SDS011;1722;51.316;12.370;2022-10-15T05:21:44;4.30;;;3.40;;
3417;SDS011;1722;51.316;12.370;2022-10-15T05:24:12;5.20;;;2.70;;
3417;SDS011;1722;51.316;12.370;2022-10-15T05:26:39;10.73;;;3.33;;
3417;SDS011;1722;51.316;12.370;2022-10-15T05:29:07;3.43;;;3.13;;
3417;SDS011;1722;51.316;12.370;2022-10-15T05:31:35;7.80;;;3.70;;
3417;SDS011;1722;51.316;12.370;2022-10-15T05:34:05;5.43;;;3.47;;
3417;SDS011;1722;51.316;12.370;2022-10-15T05:36:33;3.70;;;3.00;;
3417;SDS011;1722;51.316;12.370;2022-10-15T05:39:03;5.93;;;3.10;;
3417;SDS011;1722;51.316;12.370;2022-10-15T05:41:35;4.67;;;3.30;;
3417;SDS011;1722;51.316;12.370;2022-10-15T05:44:02;7.80;;;3.13;;
3417;SDS011;1722;51.316;12.370;2022-10-15T05:46:30;4.73;;;3.20;;
3417;SDS011;1722;51.316;12.370;2022-10-15T05:48:57;5.87;;;3.23;;
3417;SDS011;1722;51.316;12.370;2022-10-15T05:51:25;3.70;;;2.83;;
3417;SDS011;1722;51.316;12.370;2022-10-15T05:53:53;4.00;;;2.97;;
3417;SDS011;1722;51.316;12.370;2022-10-15T05:56:23;5.53;;;3.30;;
3417;SDS011;1722;51.316;12.370;2022-10-15T05:58:51;7.07;;;3.63;;
3417;SDS011;1722;51.316;12.370;2022-10-15T06:01:19;4.77;;;3.80;;
3417;SDS011;1722;51.316;12.370;2022-10-15T06:03:46;3.87;;;3.47;;
3417;SDS011;1722;51.316;12.370;2022-10-15T06:06:14;5.03;;;4.33;;
3417;SDS011;1722;51.316;12.370;2022-10-15T06:08:43;5.60;;;3.80;;
3417;SDS011;1722;51.316;12.370;2022-10-15T06:11:10;5.93;;;3.97;;
3417;SDS011;1722;51.316;12.370;2022-10-15T06:13:40;5.37;;;4.40;;
3417;SDS011;1722;51.316;12.370;2022-10-15T06:16:08;8.30;;;4.87;;
3417;SDS011;1722;51.316;12.370;2022-10-15T06:18:36;8.23;;;4.40;;
3417;SDS011;1722;51.316;12.370;2022-10-15T06:21:04;6.63;;;4.17;;
3417;SDS011;1722;51.316;12.370;2022-10-15T06:23:32;9.93;;;4.73;;
3417;SDS011;1722;51.316;12.370;2022-10-15T06:26:01;5.73;;;4.23;;
3417;SDS011;1722;51.316;12.370;2022-10-15T06:28:29;7.93;;;4.53;;
3417;SDS011;1722;51.316;12.370;2022-10-15T06:30:58;6.03;;;4.03;;
3417;SDS011;1722;51.316;12.370;2022-10-15T06:33:27;3.67;;;3.30;;
3417;SDS011;1722;51.316;12.370;2022-10-15T06:35:58;3.63;;;3.10;;
3417;SDS011;1722;51.316;12.370;2022-10-15T06:38:26;7.50;;;3.63;;
3417;SDS011;1722;51.316;12.370;2022-10-15T06:40:54;3.07;;;2.77;;
3417;SDS011;1722;51.316;12.370;2022-10-15T06:43:21;4.20;;;3.20;;
3417;SDS011;1722;51.316;12.370;2022-10-15T06:45:49;5.10;;;3.13;;
3417;SDS011;1722;51.316;12.370;2022-10-15T06:48:18;5.60;;;3.70;;
3417;SDS011;1722;51.316;12.370;2022-10-15T06:50:45;7.80;;;3.47;;
3417;SDS011;1722;51.316;12.370;2022-10-15T06:53:13;4.20;;;3.30;;
3417;SDS011;1722;51.316;12.370;2022-10-15T06:55:41;4.80;;;3.13;;
3417;SDS011;1722;51.316;12.370;2022-10-15T06:58:08;4.23;;;3.33;;
3417;SDS011;1722;51.316;12.370;2022-10-15T07:00:36;4.50;;;3.10;;
3417;SDS011;1722;51.316;12.370;2022-10-15T07:03:03;4.70;;;3.10;;
3417;SDS011;1722;51.316;12.370;2022-10-15T07:05:33;4.77;;;3.00;;
3417;SDS011;1722;51.316;12.370;2022-10-15T07:08:00;3.63;;;3.13;;
3417;SDS011;1722;51.316;12.370;2022-10-15T07:10:28;4.60;;;3.70;;
3417;SDS011;1722;51.316;12.370;2022-10-15T07:12:58;7.93;;;4.23;;
3417;SDS011;1722;51.316;12.370;2022-10-15T07:15:26;5.40;;;3.60;;
3417;SDS011;1722;51.316;12.370;2022-10-15T07:17:54;6.60;;;3.70;;
3417;SDS011;1722;51.316;12.370;2022-10-15T07:20:26;4.63;;;2.93;;
3417;SDS011;1722;51.316;12.370;2022-10-15T07:22:56;4.97;;;3.00;;
3417;SDS011;1722;51.316;12.370;2022-10-15T07:25:25;5.20;;;3.80;;
3417;SDS011;1722;51.316;12.370;2022-10-15T07:27:53;3.87;;;2.80;;
3417;SDS011;1722;51.316;12.370;2022-10-15T07:30:21;4.00;;;2.97;;
3417;SDS011;1722;51.316;12.370;2022-10-15T07:32:52;4.30;;;3.13;;
3417;SDS011;1722;51.316;12.370;2022-10-15T07:35:19;6.73;;;3.83;;
3417;SDS011;1722;51.316;12.370;2022-10-15T07:37:46;5.50;;;3.77;;
3417;SDS011;1722;51.316;12.370;2022-10-15T07:40:16;4.80;;;3.73;;
3417;SDS011;1722;51.316;12.370;2022-10-15T07:42:50;6.47;;;3.73;;
3417;SDS011;1722;51.316;12.370;2022-10-15T07:45:18;7.73;;;3.70;;
3417;SDS011;1722;51.316;12.370;2022-10-15T07:47:45;6.30;;;3.20;;
3417;SDS011;1722;51.316;12.370;2022-10-15T07:50:13;3.80;;;3.20;;
3417;SDS011;1722;51.316;12.370;2022-10-15T07:52:41;6.87;;;2.50;;
3417;SDS011;1722;51.316;12.370;2022-10-15T07:55:08;3.97;;;2.90;;
3417;SDS011;1722;51.316;12.370;2022-10-15T07:57:37;4.60;;;3.10;;
3417;SDS011;1722;51.316;12.370;2022-10-15T08:00:05;6.00;;;3.33;;
3417;SDS011;1722;51.316;12.370;2022-10-15T08:02:34;3.77;;;2.47;;
3417;SDS011;1722;51.316;12.370;2022-10-15T08:05:01;2.73;;;2.30;;
3417;SDS011;1722;51.316;12.370;2022-10-15T08:07:29;4.73;;;3.00;;
3417;SDS011;1722;51.316;12.370;2022-10-15T08:09:56;6.20;;;3.03;;
3417;SDS011;1722;51.316;12.370;2022-10-15T08:12:24;4.33;;;3.00;;
3417;SDS011;1722;51.316;12.370;2022-10-15T08:14:53;4.23;;;2.53;;
3417;SDS011;1722;51.316;12.370;2022-10-15T08:17:20;3.20;;;2.23;;
3417;SDS011;1722;51.316;12.370;2022-10-15T08:19:47;4.73;;;3.60;;
3417;SDS011;1722;51.316;12.370;2022-10-15T08:22:15;3.00;;;2.70;;
3417;SDS011;1722;51.316;12.370;2022-10-15T08:24:42;3.20;;;2.67;;
3417;SDS011;1722;51.316;12.370;2022-10-15T08:27:10;3.23;;;2.73;;
3417;SDS011;1722;51.316;12.370;2022-10-15T08:29:37;3.10;;;2.80;;
3417;SDS011;1722;51.316;12.370;2022-10-15T08:32:06;5.37;;;2.60;;
3417;SDS011;1722;51.316;12.370;2022-10-15T08:34:33;2.60;;;2.07;;
3417;SDS011;1722;51.316;12.370;2022-10-15T08:37:01;2.73;;;2.00;;
3417;SDS011;1722;51.316;12.370;2022-10-15T08:39:47;2.43;;;2.23;;
3417;SDS011;1722;51.316;12.370;2022-10-15T08:42:15;3.80;;;2.00;;
3417;SDS011;1722;51.316;12.370;2022-10-15T08:44:46;2.43;;;2.00;;
3417;SDS011;1722;51.316;12.370;2022-10-15T08:47:24;2.40;;;2.20;;
3417;SDS011;1722;51.316;12.370;2022-10-15T08:49:54;4.60;;;2.33;;
3417;SDS011;1722;51.316;12.370;2022-10-15T08:52:24;4.43;;;2.50;;
3417;SDS011;1722;51.316;12.370;2022-10-15T08:54:56;2.10;;;2.00;;
3417;SDS011;1722;51.316;12.370;2022-10-15T08:57:30;4.53;;;2.30;;
3417;SDS011;1722;51.316;12.370;2022-10-15T09:00:07;3.60;;;2.47;;
3417;SDS011;1722;51.316;12.370;2022-10-15T09:02:41;3.70;;;2.30;;
3417;SDS011;1722;51.316;12.370;2022-10-15T09:05:21;2.10;;;2.00;;
3417;SDS011;1722;51.316;12.370;2022-10-15T09:07:55;2.70;;;1.60;;
3417;SDS011;1722;51.316;12.370;2022-10-15T09:10:30;5.00;;;2.53;;
3417;SDS011;1722;51.316;12.370;2022-10-15T09:13:07;2.53;;;2.00;;
3417;SDS011;1722;51.316;12.370;2022-10-15T09:15:41;2.63;;;2.03;;
3417;SDS011;1722;51.316;12.370;2022-10-15T09:18:17;3.03;;;2.03;;
3417;SDS011;1722;51.316;12.370;2022-10-15T09:20:49;2.70;;;1.73;;
3417;SDS011;1722;51.316;12.370;2022-10-15T09:23:20;2.17;;;1.90;;
3417;SDS011;1722;51.316;12.370;2022-10-15T09:25:53;2.40;;;2.10;;
3417;SDS011;1722;51.316;12.370;2022-10-15T09:28:24;7.43;;;4.20;;
3417;SDS011;1722;51.316;12.370;2022-10-15T09:30:58;2.57;;;1.80;;
3417;SDS011;1722;51.316;12.370;2022-10-15T09:33:32;4.93;;;2.60;;
3417;SDS011;1722;51.316;12.370;2022-10-15T09:36:08;1.97;;;1.87;;
3417;SDS011;1722;51.316;12.370;2022-10-15T09:38:46;2.30;;;2.10;;
3417;SDS011;1722;51.316;12.370;2022-10-15T09:41:24;2.07;;;1.83;;
3417;SDS011;1722;51.316;12.370;2022-10-15T09:43:58;2.30;;;2.00;;
3417;SDS011;1722;51.316;12.370;2022-10-15T09:46:27;2.30;;;2.10;;
3417;SDS011;1722;51.316;12.370;2022-10-15T09:48:57;2.13;;;1.77;;
3417;SDS011;1722;51.316;12.370;2022-10-15T09:51:32;2.20;;;2.00;;
3417;SDS011;1722;51.316;12.370;2022-10-15T09:54:05;2.27;;;2.07;;
3417;SDS011;1722;51.316;12.370;2022-10-15T09:56:41;4.60;;;2.57;;
3417;SDS011;1722;51.316;12.370;2022-10-15T09:59:14;3.40;;;2.53;;
3417;SDS011;1722;51.316;12.370;2022-10-15T10:01:54;2.10;;;1.90;;
3417;SDS011;1722;51.316;12.370;2022-10-15T10:04:26;2.20;;;2.00;;
3417;SDS011;1722;51.316;12.370;2022-10-15T10:06:55;2.37;;;2.00;;
3417;SDS011;1722;51.316;12.370;2022-10-15T10:09:25;2.30;;;1.70;;
3417;SDS011;1722;51.316;12.370;2022-10-15T10:11:58;1.80;;;1.70;;
3417;SDS011;1722;51.316;12.370;2022-10-15T10:14:28;1.50;;;1.40;;
3417;SDS011;1722;51.316;12.370;2022-10-15T10:17:03;1.63;;;1.53;;
3417;SDS011;1722;51.316;12.370;2022-10-15T10:19:44;1.63;;;1.50;;
3417;SDS011;1722;51.316;12.370;2022-10-15T10:22:27;2.50;;;1.60;;
3417;SDS011;1722;51.316;12.370;2022-10-15T10:24:55;1.20;;;1.10;;
3417;SDS011;1722;51.316;12.370;2022-10-15T10:27:23;1.13;;;1.03;;
3417;SDS011;1722;51.316;12.370;2022-10-15T10:29:54;1.20;;;1.10;;
3417;SDS011;1722;51.316;12.370;2022-10-15T10:32:26;1.50;;;1.40;;
3417;SDS011;1722;51.316;12.370;2022-10-15T10:34:56;1.90;;;1.30;;
3417;SDS011;1722;51.316;12.370;2022-10-15T10:37:25;1.63;;;1.47;;
3417;SDS011;1722;51.316;12.370;2022-10-15T10:39:53;2.03;;;1.53;;
3417;SDS011;1722;51.316;12.370;2022-10-15T10:42:24;2.23;;;1.73;;
3417;SDS011;1722;51.316;12.370;2022-10-15T10:44:53;3.10;;;1.63;;
3417;SDS011;1722;51.316;12.370;2022-10-15T10:47:21;3.23;;;2.53;;
3417;SDS011;1722;51.316;12.370;2022-10-15T10:49:50;3.33;;;2.40;;
3417;SDS011;1722;51.316;12.370;2022-10-15T10:52:21;3.33;;;2.70;;
3417;SDS011;1722;51.316;12.370;2022-10-15T10:54:56;1.83;;;1.73;;
3417;SDS011;1722;51.316;12.370;2022-10-15T10:57:28;1.83;;;1.50;;
3417;SDS011;1722;51.316;12.370;2022-10-15T11:00:00;3.40;;;1.50;;
3417;SDS011;1722;51.316;12.370;2022-10-15T11:02:30;2.53;;;1.60;;
3417;SDS011;1722;51.316;12.370;2022-10-15T11:05:00;1.30;;;1.20;;
3417;SDS011;1722;51.316;12.370;2022-10-15T11:07:30;1.80;;;1.27;;
3417;SDS011;1722;51.316;12.370;2022-10-15T11:10:04;1.50;;;1.20;;
3417;SDS011;1722;51.316;12.370;2022-10-15T11:12:42;1.30;;;1.20;;
3417;SDS011;1722;51.316;12.370;2022-10-15T11:15:22;1.00;;;1.00;;
3417;SDS011;1722;51.316;12.370;2022-10-15T11:18:02;1.37;;;1.27;;
3417;SDS011;1722;51.316;12.370;2022-10-15T11:20:46;1.00;;;1.00;;
3417;SDS011;1722;51.316;12.370;2022-10-15T11:23:23;1.07;;;0.97;;
3417;SDS011;1722;51.316;12.370;2022-10-15T11:26:04;1.20;;;1.10;;
3417;SDS011;1722;51.316;12.370;2022-10-15T11:28:46;1.63;;;1.17;;
3417;SDS011;1722;51.316;12.370;2022-10-15T11:31:26;5.53;;;1.53;;
3417;SDS011;1722;51.316;12.370;2022-10-15T11:34:03;4.23;;;1.33;;
3417;SDS011;1722;51.316;12.370;2022-10-15T11:36:48;3.43;;;2.10;;
3417;SDS011;1722;51.316;12.370;2022-10-15T11:39:32;1.40;;;1.30;;
3417;SDS011;1722;51.316;12.370;2022-10-15T11:42:14;1.30;;;1.20;;
3417;SDS011;1722;51.316;12.370;2022-10-15T11:44:52;1.53;;;1.43;;
3417;SDS011;1722;51.316;12.370;2022-10-15T11:47:33;1.00;;;1.00;;
3417;SDS011;1722;51.316;12.370;2022-10-15T11:50:14;1.07;;;0.97;;
3417;SDS011;1722;51.316;12.370;2022-10-15T11:52:52;1.10;;;1.03;;
3417;SDS011;1722;51.316;12.370;2022-10-15T11:55:31;1.90;;;1.17;;
3417;SDS011;1722;51.316;12.370;2022-10-15T11:58:05;1.57;;;1.10;;
3417;SDS011;1722;51.316;12.370;2022-10-15T12:00:38;1.57;;;1.03;;
3417;SDS011;1722;51.316;12.370;2022-10-15T12:03:11;1.30;;;1.20;;
3417;SDS011;1722;51.316;12.370;2022-10-15T12:05:43;1.03;;;1.00;;
3417;SDS011;1722;51.316;12.370;2022-10-15T12:08:14;1.30;;;1.20;;
3417;SDS011;1722;51.316;12.370;2022-10-15T12:10:56;0.90;;;0.90;;
3417;SDS011;1722;51.316;12.370;2022-10-15T12:13:33;1.23;;;1.13;;
3417;SDS011;1722;51.316;12.370;2022-10-15T12:16:09;1.03;;;0.93;;
3417;SDS011;1722;51.316;12.370;2022-10-15T12:18:43;1.20;;;1.10;;
3417;SDS011;1722;51.316;12.370;2022-10-15T12:24:02;1.00;;;0.93;;
3417;SDS011;1722;51.316;12.370;2022-10-15T12:26:36;0.97;;;0.90;;
3417;SDS011;1722;51.316;12.370;2022-10-15T12:29:05;1.40;;;0.90;;
3417;SDS011;1722;51.316;12.370;2022-10-15T12:31:46;0.93;;;0.80;;
3417;SDS011;1722;51.316;12.370;2022-10-15T12:34:25;1.20;;;1.10;;
3417;SDS011;1722;51.316;12.370;2022-10-15T12:36:58;2.40;;;1.03;;
3417;SDS011;1722;51.316;12.370;2022-10-15T12:39:28;1.60;;;1.20;;
3417;SDS011;1722;51.316;12.370;2022-10-15T12:41:57;1.23;;;1.10;;
3417;SDS011;1722;51.316;12.370;2022-10-15T12:44:26;0.90;;;0.90;;
3417;SDS011;1722;51.316;12.370;2022-10-15T12:46:55;0.90;;;0.90;;
3417;SDS011;1722;51.316;12.370;2022-10-15T12:55:20;1.70;;;0.80;;
3417;SDS011;1722;51.316;12.370;2022-10-15T12:57:51;0.80;;;0.80;;
3417;SDS011;1722;51.316;12.370;2022-10-15T13:00:34;2.63;;;0.90;;
3417;SDS011;1722;51.316;12.370;2022-10-15T13:03:12;1.00;;;0.90;;
3417;SDS011;1722;51.316;12.370;2022-10-15T13:05:46;0.90;;;0.80;;
3417;SDS011;1722;51.316;12.370;2022-10-15T13:08:15;1.23;;;1.13;;
3417;SDS011;1722;51.316;12.370;2022-10-15T13:10:48;1.17;;;1.07;;
3417;SDS011;1722;51.316;12.370;2022-10-15T13:13:20;1.30;;;0.90;;
3417;SDS011;1722;51.316;12.370;2022-10-15T13:15:51;0.97;;;0.97;;
3417;SDS011;1722;51.316;12.370;2022-10-15T13:18:22;1.00;;;0.90;;
3417;SDS011;1722;51.316;12.370;2022-10-15T13:20:51;0.77;;;0.77;;
3417;SDS011;1722;51.316;12.370;2022-10-15T13:23:22;1.30;;;1.00;;
3417;SDS011;1722;51.316;12.370;2022-10-15T13:25:53;1.13;;;1.03;;
3417;SDS011;1722;51.316;12.370;2022-10-15T13:28:39;1.07;;;0.97;;
3417;SDS011;1722;51.316;12.370;2022-10-15T13:31:11;3.23;;;1.00;;
3417;SDS011;1722;51.316;12.370;2022-10-15T13:33:44;1.10;;;0.83;;
3417;SDS011;1722;51.316;12.370;2022-10-15T13:36:16;1.00;;;0.80;;
3417;SDS011;1722;51.316;12.370;2022-10-15T13:38:51;0.93;;;0.87;;
3417;SDS011;1722;51.316;12.370;2022-10-15T13:41:23;0.90;;;0.90;;
3417;SDS011;1722;51.316;12.370;2022-10-15T13:43:53;1.30;;;1.00;;
3417;SDS011;1722;51.316;12.370;2022-10-15T13:46:23;1.43;;;0.87;;
3417;SDS011;1722;51.316;12.370;2022-10-15T13:48:55;1.30;;;0.80;;
3417;SDS011;1722;51.316;12.370;2022-10-15T13:51:25;1.17;;;0.70;;
3417;SDS011;1722;51.316;12.370;2022-10-15T13:53:59;0.90;;;0.90;;
3417;SDS011;1722;51.316;12.370;2022-10-15T13:56:28;2.10;;;1.00;;
3417;SDS011;1722;51.316;12.370;2022-10-15T13:58:59;0.77;;;0.77;;
3417;SDS011;1722;51.316;12.370;2022-10-15T14:01:28;1.00;;;0.90;;
3417;SDS011;1722;51.316;12.370;2022-10-15T14:04:00;1.03;;;0.80;;
3417;SDS011;1722;51.316;12.370;2022-10-15T14:06:29;1.03;;;1.00;;
3417;SDS011;1722;51.316;12.370;2022-10-15T14:08:58;0.90;;;0.90;;
3417;SDS011;1722;51.316;12.370;2022-10-15T14:11:28;0.80;;;0.80;;
3417;SDS011;1722;51.316;12.370;2022-10-15T14:13:56;1.77;;;0.80;;
3417;SDS011;1722;51.316;12.370;2022-10-15T14:16:28;1.10;;;1.00;;
3417;SDS011;1722;51.316;12.370;2022-10-15T14:19:05;0.70;;;0.70;;
3417;SDS011;1722;51.316;12.370;2022-10-15T14:21:35;1.27;;;0.90;;
3417;SDS011;1722;51.316;12.370;2022-10-15T14:24:11;1.40;;;0.90;;
3417;SDS011;1722;51.316;12.370;2022-10-15T14:26:40;1.57;;;0.90;;
3417;SDS011;1722;51.316;12.370;2022-10-15T14:29:12;0.80;;;0.80;;
3417;SDS011;1722;51.316;12.370;2022-10-15T14:31:46;0.93;;;0.90;;
3417;SDS011;1722;51.316;12.370;2022-10-15T14:34:27;1.30;;;1.10;;
3417;SDS011;1722;51.316;12.370;2022-10-15T14:36:57;3.63;;;1.20;;
3417;SDS011;1722;51.316;12.370;2022-10-15T14:39:29;1.07;;;0.97;;
3417;SDS011;1722;51.316;12.370;2022-10-15T14:41:58;2.40;;;0.90;;
3417;SDS011;1722;51.316;12.370;2022-10-15T14:44:39;1.23;;;1.10;;
3417;SDS011;1722;51.316;12.370;2022-10-15T14:47:14;2.73;;;1.13;;
3417;SDS011;1722;51.316;12.370;2022-10-15T14:49:46;2.20;;;1.07;;
3417;SDS011;1722;51.316;12.370;2022-10-15T14:52:15;1.20;;;1.10;;
3417;SDS011;1722;51.316;12.370;2022-10-15T14:54:46;1.20;;;1.10;;
3417;SDS011;1722;51.316;12.370;2022-10-15T14:57:17;2.03;;;1.13;;
3417;SDS011;1722;51.316;12.370;2022-10-15T14:59:50;3.17;;;1.03;;
3417;SDS011;1722;51.316;12.370;2022-10-15T15:02:21;1.90;;;1.40;;
3417;SDS011;1722;51.316;12.370;2022-10-15T15:04:52;1.30;;;1.20;;
3417;SDS011;1722;51.316;12.370;2022-10-15T15:07:33;1.20;;;1.10;;
3417;SDS011;1722;51.316;12.370;2022-10-15T15:10:00;1.40;;;1.20;;
3417;SDS011;1722;51.316;12.370;2022-10-15T15:12:28;1.10;;;1.00;;
3417;SDS011;1722;51.316;12.370;2022-10-15T15:14:57;1.70;;;1.40;;
3417;SDS011;1722;51.316;12.370;2022-10-15T15:17:27;1.10;;;1.00;;
3417;SDS011;1722;51.316;12.370;2022-10-15T15:19:56;1.00;;;0.83;;
3417;SDS011;1722;51.316;12.370;2022-10-15T15:22:25;0.80;;;0.80;;
3417;SDS011;1722;51.316;12.370;2022-10-15T15:24:55;2.20;;;1.10;;
3417;SDS011;1722;51.316;12.370;2022-10-15T15:27:26;1.70;;;1.03;;
3417;SDS011;1722;51.316;12.370;2022-10-15T15:29:55;3.07;;;1.30;;
3417;SDS011;1722;51.316;12.370;2022-10-15T15:32:25;4.70;;;1.20;;
3417;SDS011;1722;51.316;12.370;2022-10-15T15:34:53;2.83;;;1.60;;
3417;SDS011;1722;51.316;12.370;2022-10-15T15:37:22;2.83;;;1.73;;